createdAt,value
2023-04-01T00:01:35.473Z,16.63
2023-04-01T00:04:03.705Z,17.43
2023-04-01T00:06:33.161Z,15.80
2023-04-01T00:09:01.203Z,19.77
2023-04-01T00:11:29.313Z,18.27
2023-04-01T00:14:22.253Z,18.10
2023-04-01T00:16:50.336Z,19.43
2023-04-01T00:19:18.271Z,20.73
2023-04-01T00:21:47.749Z,17.93
2023-04-01T00:24:15.972Z,17.90
2023-04-01T00:26:45.125Z,16.70
2023-04-01T00:29:13.690Z,18.50
2023-04-01T00:31:41.753Z,19.70
2023-04-01T00:34:09.779Z,14.73
2023-04-01T00:36:38.111Z,18.23
2023-04-01T00:39:07.477Z,21.23
2023-04-01T00:41:35.420Z,16.50
2023-04-01T00:44:19.315Z,17.87
2023-04-01T00:46:47.478Z,16.20
2023-04-01T00:49:17.246Z,14.10
2023-04-01T00:51:49.042Z,15.57
2023-04-01T00:54:21.030Z,13.07
2023-04-01T00:56:56.712Z,12.83
2023-04-01T00:59:27.499Z,12.63
2023-04-01T01:01:55.810Z,13.07
2023-04-01T01:04:25.928Z,14.17
2023-04-01T01:07:09.087Z,13.90
2023-04-01T01:09:45.416Z,15.10
2023-04-01T01:12:16.154Z,12.85
2023-04-01T01:15:23.738Z,13.35
2023-04-01T01:18:00.456Z,10.10
2023-04-01T01:20:57.919Z,12.23
2023-04-01T01:23:51.501Z,7.75
2023-04-01T01:29:29.611Z,8.10
2023-04-01T01:32:05.369Z,8.03
2023-04-01T01:34:42.606Z,7.47
2023-04-01T01:37:15.512Z,5.97
2023-04-01T01:39:47.053Z,9.87
2023-04-01T01:43:29.205Z,6.30
2023-04-01T01:46:01.637Z,6.20
2023-04-01T01:48:31.641Z,7.20
2023-04-01T01:51:00.704Z,5.47
2023-04-01T01:53:30.094Z,5.93
2023-04-01T01:56:25.519Z,6.00
2023-04-01T01:58:58.224Z,4.97
2023-04-01T02:01:33.651Z,5.73
2023-04-01T02:04:12.072Z,7.53
2023-04-01T02:06:44.843Z,6.33
2023-04-01T02:09:14.903Z,8.83
2023-04-01T02:11:48.138Z,5.50
2023-04-01T02:14:18.504Z,5.60
2023-04-01T02:16:52.045Z,4.95
2023-04-01T02:19:23.805Z,5.00
2023-04-01T02:21:56.989Z,6.17
2023-04-01T02:24:28.690Z,4.73
2023-04-01T02:26:56.674Z,8.57
2023-04-01T02:29:27.400Z,5.07
2023-04-01T02:31:56.746Z,4.60
2023-04-01T02:34:26.868Z,4.43
2023-04-01T02:36:56.790Z,5.33
2023-04-01T02:39:26.629Z,6.57
2023-04-01T02:41:54.851Z,5.07
2023-04-01T02:44:22.900Z,4.47
2023-04-01T02:46:51.382Z,4.07
2023-04-01T02:49:19.406Z,5.60
2023-04-01T02:51:47.483Z,4.90
2023-04-01T02:54:15.788Z,4.23
2023-04-01T02:56:46.621Z,4.23
2023-04-01T03:00:05.556Z,5.53
2023-04-01T03:02:33.707Z,4.90
2023-04-01T03:05:01.735Z,4.43
2023-04-01T03:07:29.915Z,4.93
2023-04-01T03:09:57.876Z,4.33
2023-04-01T03:12:27.200Z,3.70
2023-04-01T03:14:55.208Z,3.97
2023-04-01T03:17:23.297Z,3.40
2023-04-01T03:19:51.279Z,5.40
2023-04-01T03:22:21.878Z,4.03
2023-04-01T03:24:50.501Z,3.20
2023-04-01T03:27:18.506Z,3.10
2023-04-01T03:29:47.899Z,3.60
2023-04-01T03:32:16.288Z,5.27
2023-04-01T03:34:44.390Z,4.07
2023-04-01T03:37:13.533Z,3.47
2023-04-01T03:39:44.095Z,3.97
2023-04-01T03:42:12.539Z,3.17
2023-04-01T03:44:40.545Z,3.53
2023-04-01T03:47:11.151Z,4.47
2023-04-01T03:49:39.263Z,4.20
2023-04-01T03:53:31.718Z,5.07
2023-04-01T03:56:06.326Z,4.27
2023-04-01T03:58:36.894Z,3.47
2023-04-01T04:01:15.725Z,4.00
2023-04-01T04:03:46.898Z,3.30
2023-04-01T04:06:16.033Z,3.30
2023-04-01T04:08:44.224Z,2.37
2023-04-01T04:11:12.831Z,4.33
2023-04-01T04:13:43.792Z,2.53
2023-04-01T04:16:37.476Z,3.13
2023-04-01T04:19:07.719Z,4.77
2023-04-01T04:21:35.700Z,3.03
2023-04-01T04:24:04.306Z,3.13
2023-04-01T04:26:52.376Z,2.47
2023-04-01T04:29:20.350Z,3.00
2023-04-01T04:31:48.460Z,3.23
2023-04-01T04:34:19.408Z,4.10
2023-04-01T04:39:16.004Z,3.73
2023-04-01T04:41:44.920Z,2.60
2023-04-01T04:44:12.946Z,3.17
2023-04-01T04:46:41.318Z,4.90
2023-04-01T04:49:15.494Z,3.47
2023-04-01T04:51:44.999Z,4.50
2023-04-01T04:54:14.444Z,6.70
2023-04-01T04:56:57.491Z,3.07
2023-04-01T04:59:27.499Z,3.53
2023-04-01T05:02:18.666Z,3.47
2023-04-01T05:04:46.687Z,4.07
2023-04-01T05:07:16.354Z,4.97
2023-04-01T05:09:46.675Z,3.08
2023-04-01T05:12:15.006Z,3.17
2023-04-01T05:15:03.037Z,3.93
2023-04-01T05:17:31.771Z,3.40
2023-04-01T05:19:59.875Z,3.00
2023-04-01T05:22:30.351Z,4.70
2023-04-01T05:24:58.286Z,4.00
2023-04-01T05:27:26.930Z,4.17
2023-04-01T05:29:54.997Z,3.80
2023-04-01T05:32:42.773Z,4.23
2023-04-01T05:35:11.390Z,4.03
2023-04-01T05:37:40.830Z,5.00
2023-04-01T05:40:10.272Z,3.53
2023-04-01T05:42:38.543Z,5.20
2023-04-01T05:45:08.715Z,5.93
2023-04-01T05:48:01.084Z,5.03
2023-04-01T05:50:32.579Z,4.80
2023-04-01T05:53:01.923Z,4.23
2023-04-01T05:55:30.046Z,3.70
2023-04-01T05:57:58.271Z,6.10
2023-04-01T06:00:26.280Z,6.13
2023-04-01T06:02:54.380Z,5.70
2023-04-01T06:05:24.636Z,5.03
2023-04-01T06:07:57.318Z,5.90
2023-04-01T06:10:40.752Z,6.53
2023-04-01T06:13:18.761Z,4.00
2023-04-01T06:16:18.099Z,3.17
2023-04-01T06:19:16.915Z,5.00
2023-04-01T06:22:34.117Z,5.77
2023-04-01T06:25:19.207Z,4.60
2023-04-01T06:28:04.295Z,5.53
2023-04-01T06:30:42.854Z,4.73
2023-04-01T06:33:31.812Z,6.32
2023-04-01T06:36:17.127Z,6.07
2023-04-01T06:39:06.557Z,5.60
2023-04-01T06:42:15.343Z,6.37
2023-04-01T06:44:56.440Z,5.37
2023-04-01T06:47:57.214Z,3.93
2023-04-01T06:51:02.073Z,6.67
2023-04-01T06:53:56.817Z,5.33
2023-04-01T06:56:49.220Z,5.73
2023-04-01T06:59:27.519Z,5.43
2023-04-01T07:02:01.730Z,7.23
2023-04-01T07:04:33.291Z,4.83
2023-04-01T07:07:06.063Z,5.90
2023-04-01T07:09:40.517Z,7.17
2023-04-01T07:12:48.326Z,5.93
2023-04-01T07:15:39.730Z,6.43
2023-04-01T07:18:17.196Z,14.07
2023-04-01T07:20:46.735Z,6.40
2023-04-01T07:23:22.180Z,7.27
2023-04-01T07:26:22.842Z,8.50
2023-04-01T07:29:13.222Z,6.33
2023-04-01T07:32:08.150Z,6.20
2023-04-01T07:34:47.375Z,4.07
2023-04-01T07:37:24.291Z,5.50
2023-04-01T07:40:00.936Z,5.27
2023-04-01T07:42:43.350Z,5.70
2023-04-01T07:45:20.421Z,3.67
2023-04-01T07:48:03.402Z,7.17
2023-04-01T07:50:37.898Z,6.67
2023-04-01T07:53:16.122Z,6.63
2023-04-01T07:55:50.636Z,7.13
2023-04-01T07:58:25.842Z,9.07
2023-04-01T08:01:01.380Z,6.00
2023-04-01T08:03:51.016Z,6.80
2023-04-01T08:06:26.630Z,9.10
2023-04-01T08:09:05.601Z,7.90
2023-04-01T08:12:42.045Z,10.57
2023-04-01T08:15:51.450Z,10.87
2023-04-01T08:18:50.132Z,12.53
2023-04-01T08:21:23.793Z,11.30
2023-04-01T08:23:54.662Z,12.03
2023-04-01T08:26:32.913Z,13.52
2023-04-01T08:29:06.177Z,10.33
2023-04-01T08:31:39.629Z,8.20
2023-04-01T08:34:15.047Z,8.77
2023-04-01T08:36:50.731Z,8.83
2023-04-01T08:39:24.563Z,9.53
2023-04-01T08:42:12.088Z,8.57
2023-04-01T08:45:17.645Z,10.80
2023-04-01T08:48:10.581Z,7.83
2023-04-01T08:51:25.076Z,8.60
2023-04-01T08:54:11.124Z,7.93
2023-04-01T08:56:48.609Z,7.93
2023-04-01T08:59:36.586Z,8.73
2023-04-01T09:02:49.010Z,7.80
2023-04-01T09:05:57.368Z,6.40
2023-04-01T09:08:44.849Z,7.90
2023-04-01T09:11:36.138Z,10.40
2023-04-01T09:14:49.213Z,9.07
2023-04-01T09:17:41.221Z,10.07
2023-04-01T09:20:27.071Z,9.60
2023-04-01T09:23:09.157Z,7.27
2023-04-01T09:26:02.951Z,10.33
2023-04-01T09:28:44.271Z,10.47
2023-04-01T09:31:28.038Z,8.23
2023-04-01T09:34:54.862Z,7.73
2023-04-01T09:37:36.716Z,8.80
2023-04-01T09:40:19.819Z,10.57
2023-04-01T09:43:14.486Z,12.20
2023-04-01T09:46:00.898Z,11.37
2023-04-01T09:48:45.888Z,8.10
2023-04-01T09:51:28.158Z,8.10
2023-04-01T09:54:14.349Z,6.17
2023-04-01T09:57:06.338Z,4.57
2023-04-01T10:00:06.035Z,7.87
2023-04-01T10:03:22.169Z,8.10
2023-04-01T10:06:21.029Z,5.30
2023-04-01T10:09:25.650Z,5.80
2023-04-01T10:12:44.271Z,4.10
2023-04-01T10:15:36.893Z,5.33
2023-04-01T10:18:42.273Z,5.40
2023-04-01T10:21:46.884Z,8.37
2023-04-01T10:24:34.758Z,7.67
2023-04-01T10:27:23.489Z,7.60
2023-04-01T10:30:36.702Z,7.07
2023-04-01T10:33:40.404Z,8.90
2023-04-01T10:36:41.617Z,11.83
2023-04-01T10:39:49.745Z,8.73
2023-04-01T10:43:19.410Z,6.20
2023-04-01T10:46:43.379Z,5.13
2023-04-01T10:49:44.616Z,6.28
2023-04-01T10:52:34.809Z,6.57
2023-04-01T10:55:38.689Z,8.47
2023-04-01T10:59:05.831Z,6.63
2023-04-01T11:02:34.468Z,10.83
2023-04-01T11:05:57.726Z,10.30
2023-04-01T11:09:04.996Z,8.27
2023-04-01T11:12:14.888Z,9.33
2023-04-01T11:15:28.473Z,9.45
2023-04-01T11:18:43.083Z,9.77
2023-04-01T11:21:49.869Z,10.30
2023-04-01T11:24:38.301Z,10.80
2023-04-01T11:27:43.587Z,14.50
2023-04-01T11:30:31.223Z,8.32
2023-04-01T11:33:05.175Z,10.37
2023-04-01T11:35:55.980Z,10.77
2023-04-01T11:38:43.316Z,16.02
2023-04-01T11:41:38.014Z,14.67
2023-04-01T11:44:29.240Z,7.43
2023-04-01T11:47:21.266Z,12.02
2023-04-01T11:50:00.303Z,7.70
2023-04-01T11:52:54.788Z,6.70
2023-04-01T11:55:34.328Z,11.40
2023-04-01T11:58:25.976Z,9.63
2023-04-01T12:01:06.561Z,8.33
2023-04-01T12:03:59.783Z,8.63
2023-04-01T12:06:37.447Z,18.83
2023-04-01T12:09:16.073Z,6.70
2023-04-01T12:11:51.770Z,8.43
2023-04-01T12:14:24.762Z,10.55
2023-04-01T12:17:05.689Z,10.13
2023-04-01T12:19:43.439Z,7.18
2023-04-01T12:22:25.761Z,5.78
2023-04-01T12:25:02.547Z,9.20
2023-04-01T12:27:42.993Z,6.53
2023-04-01T12:30:27.365Z,7.85
2023-04-01T12:33:07.764Z,10.20
2023-04-01T12:35:50.687Z,8.43
2023-04-01T12:38:32.949Z,7.43
2023-04-01T12:41:14.801Z,6.55
2023-04-01T12:44:10.862Z,5.72
2023-04-01T12:46:53.176Z,6.05
2023-04-01T12:49:54.694Z,6.70
2023-04-01T12:52:33.176Z,7.47
2023-04-01T12:55:27.994Z,7.18
2023-04-01T12:58:19.547Z,6.10
2023-04-01T13:01:06.071Z,7.22
2023-04-01T13:03:49.870Z,5.90
2023-04-01T13:06:38.467Z,5.40
2023-04-01T13:09:18.841Z,6.07
2023-04-01T13:12:00.933Z,10.32
2023-04-01T13:15:09.912Z,7.25
2023-04-01T13:17:46.312Z,9.18
2023-04-01T13:20:23.028Z,5.22
2023-04-01T13:23:07.742Z,8.65
2023-04-01T13:25:44.690Z,7.93
2023-04-01T13:28:22.682Z,6.07
2023-04-01T13:30:59.362Z,4.40
2023-04-01T13:33:35.997Z,9.57
2023-04-01T13:36:20.136Z,10.82
2023-04-01T13:39:01.990Z,6.32
2023-04-01T13:41:50.804Z,5.13
2023-04-01T13:44:27.806Z,5.97
2023-04-01T13:47:10.410Z,6.30
2023-04-01T13:50:18.840Z,3.22
2023-04-01T13:53:21.019Z,4.00
2023-04-01T13:56:05.568Z,4.43
2023-04-01T13:58:49.993Z,4.57
2023-04-01T14:01:26.049Z,5.78
2023-04-01T14:04:13.733Z,3.63
2023-04-01T14:06:56.286Z,6.82
2023-04-01T14:09:54.349Z,8.07
2023-04-01T14:12:32.265Z,3.08
2023-04-01T14:15:23.364Z,7.70
2023-04-01T14:20:38.566Z,8.00
2023-04-01T14:23:23.359Z,4.95
2023-04-01T14:26:19.710Z,4.97
2023-04-01T14:28:58.449Z,5.22
2023-04-01T14:31:40.926Z,5.85
2023-04-01T14:34:23.764Z,4.05
2023-04-01T14:37:05.938Z,4.07
2023-04-01T14:40:15.687Z,5.63
2023-04-01T14:42:58.493Z,5.18
2023-04-01T14:45:47.830Z,5.03
2023-04-01T14:48:27.486Z,5.35
2023-04-01T14:51:46.311Z,5.00
2023-04-01T14:54:23.702Z,5.50
2023-04-01T14:57:03.302Z,6.93
2023-04-01T14:59:31.936Z,8.70
2023-04-01T15:02:11.086Z,10.48
2023-04-01T15:05:34.830Z,7.65
2023-04-01T15:08:11.044Z,7.65
2023-04-01T15:11:20.210Z,7.85
2023-04-01T15:14:23.620Z,8.07
2023-04-01T15:17:02.666Z,8.02
2023-04-01T15:19:42.758Z,7.10
2023-04-01T15:22:41.155Z,5.82
2023-04-01T15:25:31.857Z,8.25
2023-04-01T15:28:07.283Z,10.85
2023-04-01T15:30:46.918Z,7.88
2023-04-01T15:33:41.995Z,10.88
2023-04-01T15:36:21.494Z,8.27
2023-04-01T15:38:54.056Z,6.80
2023-04-01T15:41:28.748Z,6.95
2023-04-01T15:43:56.884Z,9.07
2023-04-01T15:46:46.886Z,10.23
2023-04-01T15:49:31.088Z,8.75
2023-04-01T15:52:18.369Z,7.88
2023-04-01T15:55:10.225Z,9.50
2023-04-01T15:57:49.434Z,8.68
2023-04-01T16:00:29.096Z,6.20
2023-04-01T16:03:29.392Z,7.50
2023-04-01T16:06:56.226Z,7.18
2023-04-01T16:09:40.051Z,9.55
2023-04-01T16:12:17.176Z,8.77
2023-04-01T16:15:00.951Z,10.57
2023-04-01T16:18:06.520Z,10.47
2023-04-01T16:20:46.447Z,11.50
2023-04-01T16:23:25.274Z,17.87
2023-04-01T16:26:05.902Z,10.40
2023-04-01T16:28:40.722Z,11.88
2023-04-01T16:31:16.335Z,6.23
2023-04-01T16:33:53.115Z,7.97
2023-04-01T16:36:30.532Z,8.57
2023-04-01T16:39:13.878Z,8.10
2023-04-01T16:41:50.483Z,10.63
2023-04-01T16:44:22.588Z,7.27
2023-04-01T16:46:54.430Z,7.33
2023-04-01T16:49:31.185Z,7.30
2023-04-01T16:52:14.549Z,8.00
2023-04-01T16:54:48.570Z,10.23
2023-04-01T16:57:24.007Z,9.23
2023-04-01T17:00:01.871Z,9.30
2023-04-01T17:02:35.882Z,7.80
2023-04-01T17:05:08.075Z,6.97
2023-04-01T17:07:48.897Z,8.82
2023-04-01T17:10:39.582Z,7.25
2023-04-01T17:13:29.710Z,8.88
2023-04-01T17:16:08.340Z,7.93
2023-04-01T17:18:46.495Z,7.57
2023-04-01T17:21:20.748Z,7.70
2023-04-01T17:23:53.795Z,9.37
2023-04-01T17:26:33.868Z,7.63
2023-04-01T17:29:12.909Z,7.20
2023-04-01T17:32:00.210Z,8.33
2023-04-01T17:34:54.818Z,6.33
2023-04-01T17:38:13.894Z,6.67
2023-04-01T17:40:57.262Z,5.43
2023-04-01T17:43:44.186Z,6.77
2023-04-01T17:46:32.325Z,9.57
2023-04-01T17:49:13.032Z,8.40
2023-04-01T17:51:48.062Z,7.13
2023-04-01T17:54:26.507Z,7.23
2023-04-01T17:57:09.558Z,7.90
2023-04-01T17:59:40.403Z,7.23
2023-04-01T18:02:26.903Z,5.78
2023-04-01T18:05:29.364Z,8.97
2023-04-01T18:08:10.083Z,7.37
2023-04-01T18:10:43.884Z,4.93
2023-04-01T18:13:36.555Z,7.87
2023-04-01T18:16:22.949Z,6.47
2023-04-01T18:19:03.979Z,6.03
2023-04-01T18:21:43.361Z,5.97
2023-04-01T18:24:20.192Z,7.27
2023-04-01T18:27:01.437Z,4.97
2023-04-01T18:32:17.743Z,5.63
2023-04-01T18:34:57.492Z,8.97
2023-04-01T18:37:30.690Z,8.23
2023-04-01T18:40:12.461Z,7.27
2023-04-01T18:42:55.273Z,6.47
2023-04-01T18:45:29.528Z,7.53
2023-04-01T18:48:10.515Z,5.90
2023-04-01T18:50:45.553Z,6.05
2023-04-01T18:53:26.088Z,8.20
2023-04-01T18:55:57.510Z,6.93
2023-04-01T18:58:31.906Z,5.07
2023-04-01T19:01:14.175Z,5.43
2023-04-01T19:03:50.398Z,5.50
2023-04-01T19:06:28.143Z,7.30
2023-04-01T19:08:56.578Z,7.17
2023-04-01T19:11:37.859Z,5.77
2023-04-01T19:14:16.402Z,4.07
2023-04-01T19:16:54.744Z,5.20
2023-04-01T19:19:43.413Z,7.43
2023-04-01T19:22:40.298Z,7.03
2023-04-01T19:25:30.267Z,7.53
2023-04-01T19:28:09.634Z,5.13
2023-04-01T19:30:56.402Z,6.10
2023-04-01T19:33:43.665Z,6.40
2023-04-01T19:36:21.416Z,5.47
2023-04-01T19:38:57.748Z,7.17
2023-04-01T19:41:41.772Z,5.43
2023-04-01T19:44:29.678Z,5.27
2023-04-01T19:47:04.531Z,6.53
2023-04-01T19:49:52.591Z,3.63
2023-04-01T19:52:29.748Z,5.07
2023-04-01T19:55:05.494Z,5.67
2023-04-01T19:57:42.996Z,4.97
2023-04-01T20:00:24.393Z,6.50
2023-04-01T20:03:06.200Z,5.83
2023-04-01T20:05:47.666Z,5.07
2023-04-01T20:08:24.561Z,3.93
2023-04-01T20:11:03.719Z,7.00
2023-04-01T20:18:09.537Z,7.32
2023-04-01T20:20:38.492Z,7.63
2023-04-01T20:23:23.400Z,5.63
2023-04-01T20:25:58.346Z,4.53
2023-04-01T20:28:33.270Z,6.47
2023-04-01T20:31:27.479Z,5.80
2023-04-01T20:34:34.541Z,3.57
2023-04-01T20:37:12.796Z,6.00
2023-04-01T20:39:55.943Z,5.43
2023-04-01T20:42:41.933Z,3.03
2023-04-01T20:45:36.507Z,4.37
2023-04-01T20:48:25.519Z,3.53
2023-04-01T20:51:00.123Z,3.63
2023-04-01T20:53:59.366Z,4.43
2023-04-01T20:56:45.148Z,4.73
2023-04-01T20:59:34.774Z,2.60
2023-04-01T21:02:16.573Z,3.90
2023-04-01T21:05:09.627Z,3.63
2023-04-01T21:07:43.971Z,5.10
2023-04-01T21:10:25.522Z,4.33
2023-04-01T21:13:04.262Z,3.97
2023-04-01T21:15:44.855Z,4.03
2023-04-01T21:18:27.096Z,3.58
2023-04-01T21:21:16.485Z,3.37
2023-04-01T21:24:34.164Z,3.73
2023-04-01T21:27:36.722Z,4.13
2023-04-01T21:30:21.307Z,3.63
2023-04-01T21:33:05.022Z,2.43
2023-04-01T21:35:43.236Z,4.50
2023-04-01T21:38:37.638Z,3.27
2023-04-01T21:41:32.235Z,2.37
2023-04-01T21:44:37.623Z,3.10
2023-04-01T21:47:32.360Z,4.07
2023-04-01T21:50:26.314Z,6.27
2023-04-01T21:53:17.315Z,5.73
2023-04-01T21:56:21.544Z,4.78
2023-04-01T21:59:16.820Z,3.33
2023-04-01T22:02:14.175Z,3.50
2023-04-01T22:04:56.404Z,5.43
2023-04-01T22:07:31.639Z,3.03
2023-04-01T22:10:11.719Z,3.87
2023-04-01T22:12:46.944Z,3.23
2023-04-01T22:15:26.399Z,3.13
2023-04-01T22:18:04.355Z,4.13
2023-04-01T22:20:38.940Z,2.73
2023-04-01T22:23:24.189Z,3.40
2023-04-01T22:26:01.431Z,4.23
2023-04-01T22:28:34.265Z,3.47
2023-04-01T22:31:03.907Z,2.50
2023-04-01T22:33:37.116Z,3.27
2023-04-01T22:36:15.769Z,4.20
2023-04-01T22:39:04.437Z,2.53
2023-04-01T22:42:46.257Z,3.50
2023-04-01T22:45:49.259Z,2.63
2023-04-01T22:48:22.819Z,4.20
2023-04-01T22:50:58.555Z,3.00
2023-04-01T22:53:44.783Z,4.30
2023-04-01T22:56:19.743Z,2.60
2023-04-01T22:58:54.663Z,3.97
2023-04-01T23:01:25.692Z,2.13
2023-04-01T23:07:32.777Z,5.13
2023-04-01T23:10:04.697Z,3.97
2023-04-01T23:12:35.771Z,2.90
2023-04-01T23:18:03.261Z,4.37
2023-04-01T23:20:56.387Z,4.00
2023-04-01T23:23:35.476Z,3.50
2023-04-01T23:26:08.696Z,7.53
2023-04-01T23:28:47.131Z,5.87
2023-04-01T23:31:31.078Z,5.67
2023-04-01T23:34:01.813Z,3.27
2023-04-01T23:36:31.822Z,3.08
2023-04-01T23:39:08.535Z,2.40
2023-04-01T23:41:37.040Z,2.57
2023-04-01T23:44:11.548Z,3.17
2023-04-01T23:46:41.842Z,2.87
2023-04-01T23:49:15.415Z,3.88
2023-04-01T23:51:53.900Z,3.83
2023-04-01T23:54:31.158Z,2.27
2023-04-01T23:57:00.129Z,2.80
2023-04-01T23:59:33.315Z,1.60
